createdAt,value
2019-03-06T00:02:41.100Z,99.90
2019-03-06T00:06:46.447Z,99.90
2019-03-06T00:10:52.162Z,99.90
2019-03-06T00:14:57.608Z,99.90
2019-03-06T00:19:03.078Z,99.90
2019-03-06T00:23:08.815Z,99.90
2019-03-06T00:27:14.320Z,99.90
2019-03-06T00:31:20.020Z,99.90
2019-03-06T00:35:28.327Z,99.90
2019-03-06T00:39:41.839Z,99.90
2019-03-06T00:43:47.290Z,99.90
2019-03-06T00:47:52.903Z,99.90
2019-03-06T00:51:58.624Z,99.90
2019-03-06T00:56:04.099Z,99.90
2019-03-06T01:00:09.883Z,99.90
2019-03-06T01:04:15.219Z,99.90
2019-03-06T01:08:20.991Z,99.90
2019-03-06T01:12:33.127Z,99.90
2019-03-06T01:16:38.554Z,99.90
2019-03-06T01:20:44.001Z,99.90
2019-03-06T01:25:00.451Z,99.90
2019-03-06T01:29:06.243Z,99.90
2019-03-06T01:33:36.362Z,99.90
2019-03-06T01:38:18.891Z,99.90
2019-03-06T01:42:30.324Z,99.90
2019-03-06T01:46:50.402Z,99.90
2019-03-06T01:50:55.767Z,99.90
2019-03-06T01:55:01.828Z,99.90
2019-03-06T01:59:17.123Z,99.90
2019-03-06T02:03:31.046Z,99.90
2019-03-06T02:07:45.888Z,99.90
2019-03-06T02:11:51.363Z,99.90
2019-03-06T02:15:59.508Z,99.90
2019-03-06T02:20:05.708Z,99.90
2019-03-06T02:24:11.135Z,99.90
2019-03-06T02:28:16.479Z,99.90
2019-03-06T02:32:21.913Z,99.90
2019-03-06T02:36:27.440Z,99.90
2019-03-06T02:40:32.861Z,99.90
2019-03-06T02:44:40.112Z,99.90
2019-03-06T02:48:45.436Z,99.90
2019-03-06T02:52:50.874Z,99.90
2019-03-06T02:56:56.224Z,99.90
2019-03-06T03:01:32.684Z,99.90
2019-03-06T03:05:43.217Z,99.90
2019-03-06T03:09:48.580Z,99.90
2019-03-06T03:13:53.935Z,99.90
2019-03-06T03:17:59.615Z,99.90
2019-03-06T03:22:05.045Z,99.90
2019-03-06T03:26:10.531Z,99.90
2019-03-06T03:30:16.375Z,99.90
2019-03-06T03:34:22.032Z,99.90
2019-03-06T03:38:27.580Z,99.90
2019-03-06T03:42:33.020Z,99.90
2019-03-06T03:46:38.670Z,99.90
2019-03-06T03:50:44.369Z,99.90
2019-03-06T03:54:49.694Z,99.90
2019-03-06T03:58:55.158Z,99.90
2019-03-06T04:03:00.710Z,99.90
2019-03-06T04:07:06.172Z,99.90
2019-03-06T04:11:11.592Z,99.90
2019-03-06T04:15:17.172Z,99.90
2019-03-06T04:19:22.599Z,99.90
2019-03-06T04:23:28.228Z,99.90
2019-03-06T04:27:33.640Z,99.90
2019-03-06T04:31:39.311Z,99.90
2019-03-06T04:35:44.847Z,99.90
2019-03-06T04:39:50.192Z,99.90
2019-03-06T04:43:55.884Z,99.90
2019-03-06T04:48:01.234Z,99.90
2019-03-06T04:52:06.715Z,99.90
2019-03-06T04:56:12.150Z,99.90
2019-03-06T05:00:17.839Z,99.90
2019-03-06T05:04:23.267Z,99.90
2019-03-06T05:08:28.623Z,99.90
2019-03-06T05:12:34.005Z,99.90
2019-03-06T05:17:00.133Z,99.90
2019-03-06T05:21:05.638Z,99.90
2019-03-06T05:25:11.198Z,99.90
2019-03-06T05:29:16.698Z,99.90
2019-03-06T05:33:22.397Z,99.90
2019-03-06T05:38:09.724Z,99.90
2019-03-06T05:42:15.182Z,99.90
2019-03-06T05:46:20.791Z,99.90
2019-03-06T05:50:26.240Z,99.90
2019-03-06T05:54:31.624Z,99.90
2019-03-06T05:58:37.213Z,99.90
2019-03-06T06:02:42.620Z,99.90
2019-03-06T06:06:48.062Z,99.90
2019-03-06T06:10:53.469Z,99.90
2019-03-06T06:14:58.729Z,99.90
2019-03-06T06:19:04.052Z,99.90
2019-03-06T06:23:34.213Z,99.90
2019-03-06T06:27:39.959Z,99.90
2019-03-06T06:31:45.303Z,99.90
2019-03-06T06:35:50.914Z,99.90
2019-03-06T06:39:56.615Z,99.90
2019-03-06T06:44:02.133Z,99.90
2019-03-06T06:48:19.391Z,99.90
2019-03-06T06:53:38.116Z,99.90
2019-03-06T06:58:51.565Z,99.90
2019-03-06T07:04:26.443Z,99.90
2019-03-06T07:08:49.393Z,99.90
2019-03-06T07:13:12.811Z,99.90
2019-03-06T07:17:45.905Z,99.90
2019-03-06T07:21:57.119Z,99.90
2019-03-06T07:26:30.266Z,99.90
2019-03-06T07:31:00.348Z,99.90
2019-03-06T07:36:16.391Z,99.90
2019-03-06T07:40:27.674Z,99.90
2019-03-06T07:44:59.898Z,99.90
2019-03-06T07:49:45.120Z,99.90
2019-03-06T07:54:08.204Z,99.90
2019-03-06T07:58:53.124Z,99.90
2019-03-06T08:03:15.344Z,99.90
2019-03-06T08:07:20.685Z,99.90
2019-03-06T08:11:33.028Z,99.90
2019-03-06T08:15:47.866Z,99.90
2019-03-06T08:20:19.250Z,99.90
2019-03-06T08:24:30.789Z,99.90
2019-03-06T08:28:36.283Z,99.90
2019-03-06T08:32:41.699Z,99.90
2019-03-06T08:36:47.048Z,99.90
2019-03-06T08:40:53.057Z,99.90
2019-03-06T08:44:58.790Z,99.90
2019-03-06T08:49:43.043Z,99.90
2019-03-06T08:54:00.977Z,99.90
2019-03-06T08:58:40.350Z,99.90
2019-03-06T09:03:06.291Z,99.90
2019-03-06T09:07:30.981Z,99.90
2019-03-06T09:11:43.941Z,99.90
2019-03-06T09:16:06.961Z,99.90
2019-03-06T09:20:37.151Z,99.90
2019-03-06T09:25:02.291Z,99.80
2019-03-06T09:29:25.273Z,99.70
2019-03-06T09:33:52.631Z,99.70
2019-03-06T09:38:19.754Z,98.70
2019-03-06T09:43:02.362Z,98.80
2019-03-06T09:47:27.113Z,98.80
2019-03-06T09:51:54.302Z,97.20
2019-03-06T09:56:14.086Z,97.50
2019-03-06T10:00:45.403Z,97.40
2019-03-06T10:05:15.841Z,97.30
2019-03-06T10:09:28.608Z,97.20
2019-03-06T10:13:52.310Z,96.90
2019-03-06T10:18:08.292Z,96.60
2019-03-06T10:22:13.717Z,95.70
2019-03-06T10:26:19.149Z,95.90
2019-03-06T10:30:24.581Z,95.60
2019-03-06T10:34:30.450Z,96.00
2019-03-06T10:38:38.792Z,95.90
2019-03-06T10:42:44.227Z,96.30
2019-03-06T10:46:49.729Z,93.80
2019-03-06T10:50:55.167Z,92.60
2019-03-06T10:55:00.580Z,93.50
2019-03-06T10:59:06.439Z,92.50
2019-03-06T11:03:11.950Z,92.30
2019-03-06T11:07:17.576Z,93.00
2019-03-06T11:11:23.079Z,92.50
2019-03-06T11:15:28.478Z,93.50
2019-03-06T11:19:34.054Z,93.40
2019-03-06T11:23:39.547Z,93.30
2019-03-06T11:27:44.992Z,93.20
2019-03-06T11:31:50.481Z,93.40
2019-03-06T11:35:57.202Z,92.70
2019-03-06T11:40:03.267Z,92.00
2019-03-06T11:44:09.288Z,92.90
2019-03-06T11:48:15.231Z,91.20
2019-03-06T11:52:22.548Z,90.50
2019-03-06T11:56:28.532Z,91.80
2019-03-06T12:00:37.435Z,90.00
2019-03-06T12:04:42.873Z,90.30
2019-03-06T12:08:48.293Z,90.60
2019-03-06T12:12:53.969Z,90.60
2019-03-06T12:16:59.388Z,90.70
2019-03-06T12:21:05.211Z,91.30
2019-03-06T12:25:11.960Z,90.70
2019-03-06T12:29:17.411Z,90.10
2019-03-06T12:33:26.254Z,89.50
2019-03-06T12:37:32.621Z,90.10
2019-03-06T12:41:38.369Z,90.90
2019-03-06T12:46:27.389Z,88.60
2019-03-06T12:50:33.229Z,90.70
2019-03-06T12:54:39.519Z,90.90
2019-03-06T12:58:44.973Z,90.60
2019-03-06T13:02:50.636Z,91.00
2019-03-06T13:06:56.099Z,92.30
2019-03-06T13:11:01.442Z,94.20
2019-03-06T13:15:08.590Z,93.60
2019-03-06T13:19:14.094Z,94.10
2019-03-06T13:23:19.607Z,93.50
2019-03-06T13:27:24.988Z,93.40
2019-03-06T13:31:30.420Z,93.00
2019-03-06T13:35:36.521Z,92.70
2019-03-06T13:39:41.990Z,93.90
2019-03-06T13:43:47.595Z,92.70
2019-03-06T13:47:53.290Z,92.30
2019-03-06T13:51:59.220Z,92.60
2019-03-06T13:56:06.360Z,92.10
2019-03-06T14:00:15.318Z,92.40
2019-03-06T14:04:20.717Z,91.60
2019-03-06T14:08:26.139Z,92.80
2019-03-06T14:12:31.579Z,94.60
2019-03-06T14:16:37.458Z,95.80
2019-03-06T14:20:42.890Z,96.30
2019-03-06T14:24:48.590Z,96.40
2019-03-06T14:28:54.007Z,97.70
2019-03-06T14:32:59.515Z,97.30
2019-03-06T14:37:05.390Z,98.00
2019-03-06T14:41:26.467Z,99.60
2019-03-06T14:45:45.872Z,99.90
2019-03-06T14:49:54.456Z,99.90
2019-03-06T14:54:02.521Z,99.90
2019-03-06T14:58:10.160Z,99.90
2019-03-06T15:02:15.663Z,99.90
2019-03-06T15:06:21.111Z,99.90
2019-03-06T15:10:26.905Z,99.90
2019-03-06T15:14:36.206Z,99.90
2019-03-06T15:18:39.854Z,99.90
2019-03-06T15:22:45.279Z,99.90
2019-03-06T15:26:51.251Z,99.90
2019-03-06T15:30:56.673Z,99.90
2019-03-06T15:35:02.204Z,99.90
2019-03-06T15:39:42.566Z,99.90
2019-03-06T15:43:41.758Z,99.90
2019-03-06T15:47:47.490Z,99.90
2019-03-06T15:51:53.043Z,99.90
2019-03-06T15:55:58.742Z,99.90
2019-03-06T16:00:04.818Z,99.90
2019-03-06T16:04:10.350Z,99.90
2019-03-06T16:08:15.986Z,99.90
2019-03-06T16:12:21.705Z,99.90
2019-03-06T16:16:27.366Z,99.90
2019-03-06T16:20:32.792Z,99.90
2019-03-06T16:24:38.221Z,99.90
2019-03-06T16:28:43.963Z,99.90
2019-03-06T16:32:50.108Z,99.90
2019-03-06T16:36:55.539Z,99.90
2019-03-06T16:41:01.146Z,99.70
2019-03-06T16:45:06.816Z,98.80
2019-03-06T16:49:12.316Z,99.00
2019-03-06T16:53:18.259Z,99.40
2019-03-06T16:57:23.925Z,99.90
2019-03-06T17:01:29.672Z,99.90
2019-03-06T17:05:35.566Z,99.90
2019-03-06T17:09:41.035Z,99.90
2019-03-06T17:13:46.465Z,99.90
2019-03-06T17:17:52.955Z,99.90
2019-03-06T17:21:58.460Z,99.90
2019-03-06T17:26:03.874Z,99.90
2019-03-06T17:30:13.760Z,99.90
2019-03-06T17:34:19.154Z,99.90
2019-03-06T17:38:24.610Z,99.90
2019-03-06T17:42:30.058Z,99.90
2019-03-06T17:46:35.649Z,99.90
2019-03-06T17:50:41.567Z,99.90
2019-03-06T17:54:47.014Z,99.90
2019-03-06T17:58:52.435Z,99.90
2019-03-06T18:02:58.754Z,99.90
2019-03-06T18:07:06.083Z,99.90
2019-03-06T18:11:11.724Z,99.90
2019-03-06T18:15:17.922Z,99.90
2019-03-06T18:19:23.676Z,99.90
2019-03-06T18:23:29.478Z,99.90
2019-03-06T18:27:34.863Z,99.90
2019-03-06T18:31:40.417Z,99.90
2019-03-06T18:35:45.824Z,99.90
2019-03-06T18:39:51.463Z,99.90
2019-03-06T18:43:57.268Z,99.90
2019-03-06T18:48:03.010Z,99.90
2019-03-06T18:52:08.474Z,99.90
2019-03-06T18:56:13.942Z,99.90
2019-03-06T19:00:21.035Z,99.90
2019-03-06T19:04:26.790Z,99.90
2019-03-06T19:08:32.334Z,99.90
2019-03-06T19:12:37.807Z,99.90
2019-03-06T19:16:43.189Z,99.90
2019-03-06T19:20:48.921Z,99.90
2019-03-06T19:24:54.640Z,99.90
2019-03-06T19:29:00.164Z,99.90
2019-03-06T19:33:06.092Z,99.90
2019-03-06T19:37:11.556Z,99.90
2019-03-06T19:41:17.493Z,99.90
2019-03-06T19:45:23.115Z,99.90
2019-03-06T19:49:28.924Z,99.90
2019-03-06T19:53:34.726Z,99.90
2019-03-06T19:58:03.561Z,99.90
2019-03-06T20:02:09.157Z,99.90
2019-03-06T20:06:14.690Z,99.90
2019-03-06T20:10:20.512Z,99.90
2019-03-06T20:14:26.065Z,99.90
2019-03-06T20:18:32.385Z,99.90
2019-03-06T20:22:38.684Z,99.90
2019-03-06T20:26:44.162Z,99.90
2019-03-06T20:30:49.965Z,99.90
2019-03-06T20:34:55.765Z,99.90
2019-03-06T20:39:04.888Z,99.90
2019-03-06T20:43:15.294Z,99.90
2019-03-06T20:47:21.044Z,99.90
2019-03-06T20:51:28.149Z,99.90
2019-03-06T20:55:33.705Z,99.90
2019-03-06T20:59:56.070Z,99.90
2019-03-06T21:04:01.907Z,99.90
2019-03-06T21:08:10.604Z,99.90
2019-03-06T21:12:16.668Z,99.90
2019-03-06T21:16:22.085Z,99.90
2019-03-06T21:20:37.320Z,99.90
2019-03-06T21:24:43.038Z,99.90
2019-03-06T21:28:48.675Z,99.90
2019-03-06T21:32:55.614Z,99.90
2019-03-06T21:37:02.681Z,99.90
2019-03-06T21:41:08.866Z,99.90
2019-03-06T21:45:14.870Z,99.90
2019-03-06T21:49:20.581Z,99.90
2019-03-06T21:53:26.595Z,99.90
2019-03-06T21:57:36.575Z,99.90
2019-03-06T22:01:42.648Z,99.90
2019-03-06T22:05:50.515Z,99.90
2019-03-06T22:09:56.204Z,99.90
2019-03-06T22:14:01.649Z,99.90
2019-03-06T22:18:07.574Z,99.90
2019-03-06T22:22:13.483Z,99.90
2019-03-06T22:26:23.915Z,99.90
2019-03-06T22:30:32.470Z,99.90
2019-03-06T22:34:38.182Z,99.90
2019-03-06T22:38:48.043Z,99.90
2019-03-06T22:42:57.759Z,99.90
2019-03-06T22:47:04.401Z,99.90
2019-03-06T22:51:10.104Z,99.90
2019-03-06T22:55:16.754Z,99.90
2019-03-06T22:59:22.383Z,99.90
2019-03-06T23:03:30.706Z,99.90
2019-03-06T23:07:36.537Z,99.90
2019-03-06T23:11:42.889Z,99.90
2019-03-06T23:15:48.451Z,99.90
2019-03-06T23:19:53.857Z,99.90
2019-03-06T23:23:59.271Z,99.90
2019-03-06T23:28:04.682Z,99.90
2019-03-06T23:32:10.485Z,99.90
2019-03-06T23:36:15.844Z,99.90
2019-03-06T23:40:21.525Z,99.90
2019-03-06T23:44:27.008Z,99.90
2019-03-06T23:48:32.689Z,99.90
2019-03-06T23:52:57.601Z,99.90
2019-03-06T23:57:03.135Z,99.90
